createdAt,value
2023-01-11T00:00:26.538Z,7.15
2023-01-11T00:03:07.834Z,7.12
2023-01-11T00:05:42.378Z,7.09
2023-01-11T00:08:09.289Z,7.08
2023-01-11T00:10:36.350Z,7.08
2023-01-11T00:13:03.672Z,7.07
2023-01-11T00:15:30.483Z,7.09
2023-01-11T00:17:57.904Z,7.09
2023-01-11T00:20:25.299Z,7.07
2023-01-11T00:22:51.716Z,7.08
2023-01-11T00:25:18.592Z,7.09
2023-01-11T00:27:47.174Z,7.06
2023-01-11T00:30:14.443Z,7.08
2023-01-11T00:32:41.272Z,7.10
2023-01-11T00:35:09.163Z,7.11
2023-01-11T00:37:36.031Z,7.12
2023-01-11T00:40:05.524Z,7.12
2023-01-11T00:42:53.790Z,7.12
2023-01-11T00:45:39.182Z,7.14
2023-01-11T00:48:07.213Z,7.19
2023-01-11T00:50:36.455Z,7.18
2023-01-11T00:53:03.560Z,7.19
2023-01-11T00:55:32.093Z,7.21
2023-01-11T00:57:59.318Z,7.23
2023-01-11T01:00:27.384Z,7.28
2023-01-11T01:02:54.576Z,7.29
2023-01-11T01:05:21.373Z,7.33
2023-01-11T01:07:48.400Z,7.35
2023-01-11T01:10:17.526Z,7.36
2023-01-11T01:13:02.986Z,7.36
2023-01-11T01:15:29.580Z,7.40
2023-01-11T01:17:56.381Z,7.42
2023-01-11T01:20:24.646Z,7.42
2023-01-11T01:22:51.751Z,7.46
2023-01-11T01:25:18.491Z,7.50
2023-01-11T01:27:45.084Z,7.45
2023-01-11T01:30:12.004Z,7.47
2023-01-11T01:32:38.636Z,7.46
2023-01-11T01:35:05.343Z,7.46
2023-01-11T01:37:31.801Z,7.47
2023-01-11T01:39:58.329Z,7.46
2023-01-11T01:42:25.202Z,7.45
2023-01-11T01:44:56.859Z,7.47
2023-01-11T01:47:31.714Z,7.49
2023-01-11T01:50:04.695Z,7.52
2023-01-11T01:52:33.218Z,7.52
2023-01-11T01:55:03.135Z,7.56
2023-01-11T01:57:34.264Z,7.53
2023-01-11T02:00:05.121Z,7.54
2023-01-11T02:02:31.678Z,7.54
2023-01-11T02:04:58.723Z,7.57
2023-01-11T02:07:34.947Z,7.56
2023-01-11T02:10:09.187Z,7.57
2023-01-11T02:12:44.918Z,7.63
2023-01-11T02:15:13.101Z,7.66
2023-01-11T02:17:39.877Z,7.67
2023-01-11T02:20:35.664Z,7.67
2023-01-11T02:23:17.731Z,7.62
2023-01-11T02:25:59.800Z,7.61
2023-01-11T02:28:56.223Z,7.60
2023-01-11T02:31:40.414Z,7.58
2023-01-11T02:34:20.844Z,7.56
2023-01-11T02:37:16.406Z,7.59
2023-01-11T02:40:02.623Z,7.55
2023-01-11T02:43:13.898Z,7.59
2023-01-11T02:46:21.792Z,7.57
2023-01-11T02:49:04.628Z,7.58
2023-01-11T02:51:40.777Z,7.59
2023-01-11T02:54:09.978Z,7.62
2023-01-11T02:56:40.950Z,7.63
2023-01-11T02:59:17.863Z,7.67
2023-01-11T03:01:46.042Z,7.67
2023-01-11T03:04:41.890Z,7.68
2023-01-11T03:07:35.720Z,7.72
2023-01-11T03:10:23.699Z,7.73
2023-01-11T03:13:19.723Z,7.75
2023-01-11T03:16:04.561Z,7.73
2023-01-11T03:18:46.111Z,7.76
2023-01-11T03:21:27.817Z,7.78
2023-01-11T03:24:19.620Z,7.79
2023-01-11T03:26:49.107Z,7.82
2023-01-11T03:29:28.259Z,7.83
2023-01-11T03:32:10.704Z,7.86
2023-01-11T03:34:48.703Z,7.89
2023-01-11T03:37:56.637Z,7.91
2023-01-11T03:40:40.004Z,7.89
2023-01-11T03:43:12.735Z,7.91
2023-01-11T03:45:48.507Z,7.92
2023-01-11T03:48:39.832Z,7.94
2023-01-11T03:51:10.568Z,7.93
2023-01-11T03:53:40.055Z,7.99
2023-01-11T03:56:12.368Z,7.99
2023-01-11T03:58:38.988Z,7.95
2023-01-11T04:01:05.948Z,7.94
2023-01-11T04:03:32.506Z,7.93
2023-01-11T04:06:01.305Z,7.95
2023-01-11T04:08:28.080Z,7.98
2023-01-11T04:10:54.576Z,7.98
2023-01-11T04:13:21.035Z,8.04
2023-01-11T04:15:47.535Z,8.06
2023-01-11T04:18:14.070Z,8.12
2023-01-11T04:20:41.082Z,8.12
2023-01-11T04:23:09.628Z,8.08
2023-01-11T04:25:36.067Z,8.09
2023-01-11T04:28:02.502Z,8.08
2023-01-11T04:30:28.931Z,8.04
2023-01-11T04:32:58.228Z,8.11
2023-01-11T04:35:25.246Z,8.07
2023-01-11T04:37:55.838Z,8.09
2023-01-11T04:40:22.538Z,8.09
2023-01-11T04:42:49.058Z,8.12
2023-01-11T04:45:16.344Z,8.13
2023-01-11T04:47:42.753Z,8.14
2023-01-11T04:50:09.955Z,8.18
2023-01-11T04:52:36.439Z,8.19
2023-01-11T04:55:03.169Z,8.21
2023-01-11T04:57:29.866Z,8.21
2023-01-11T04:59:56.426Z,8.20
2023-01-11T05:02:22.862Z,8.22
2023-01-11T05:04:49.334Z,8.20
2023-01-11T05:07:15.823Z,8.24
2023-01-11T05:09:42.308Z,8.28
2023-01-11T05:12:08.964Z,8.28
2023-01-11T05:14:35.444Z,8.34
2023-01-11T05:17:02.014Z,8.34
2023-01-11T05:19:28.471Z,8.38
2023-01-11T05:21:54.872Z,8.41
2023-01-11T05:24:21.286Z,8.41
2023-01-11T05:26:50.122Z,8.42
2023-01-11T05:29:16.629Z,8.46
2023-01-11T05:31:43.412Z,8.45
2023-01-11T05:34:12.384Z,8.45
2023-01-11T05:36:38.928Z,8.42
2023-01-11T05:39:06.283Z,8.49
2023-01-11T05:41:33.581Z,8.53
2023-01-11T05:44:18.650Z,8.52
2023-01-11T05:46:45.318Z,8.54
2023-01-11T05:49:13.966Z,8.54
2023-01-11T05:51:41.536Z,8.54
2023-01-11T05:54:11.746Z,8.53
2023-01-11T05:56:38.365Z,8.55
2023-01-11T05:59:04.926Z,8.58
2023-01-11T06:01:31.601Z,8.59
2023-01-11T06:03:58.084Z,8.60
2023-01-11T06:06:24.697Z,8.59
2023-01-11T06:08:51.220Z,8.61
2023-01-11T06:11:17.748Z,8.63
2023-01-11T06:13:44.235Z,8.63
2023-01-11T06:16:15.884Z,8.67
2023-01-11T06:18:48.339Z,8.68
2023-01-11T06:21:16.020Z,8.64
2023-01-11T06:23:45.153Z,8.61
2023-01-11T06:26:16.666Z,8.65
2023-01-11T06:28:43.858Z,8.63
2023-01-11T06:31:10.966Z,8.68
2023-01-11T06:33:38.026Z,8.64
2023-01-11T06:36:07.405Z,8.69
2023-01-11T06:38:34.473Z,8.64
2023-01-11T06:41:02.456Z,8.63
2023-01-11T06:43:31.082Z,8.61
2023-01-11T06:45:59.059Z,8.65
2023-01-11T06:48:26.594Z,8.69
2023-01-11T06:50:55.733Z,8.74
2023-01-11T06:53:22.738Z,8.84
2023-01-11T06:55:53.474Z,8.85
2023-01-11T06:58:20.954Z,8.79
2023-01-11T07:00:47.476Z,8.83
2023-01-11T07:03:13.998Z,8.84
2023-01-11T07:05:42.188Z,8.83
2023-01-11T07:08:08.651Z,8.82
2023-01-11T07:10:35.155Z,8.81
2023-01-11T07:13:01.746Z,8.74
2023-01-11T07:15:28.278Z,8.84
2023-01-11T07:17:56.155Z,8.88
2023-01-11T07:20:24.285Z,8.93
2023-01-11T07:22:50.992Z,9.02
2023-01-11T07:25:18.221Z,9.18
2023-01-11T07:27:44.821Z,9.06
2023-01-11T07:30:11.758Z,9.06
2023-01-11T07:32:38.515Z,9.10
2023-01-11T07:35:05.295Z,9.14
2023-01-11T07:37:35.197Z,9.14
2023-01-11T07:40:01.640Z,9.08
2023-01-11T07:42:46.743Z,9.03
2023-01-11T07:45:13.235Z,9.22
2023-01-11T07:47:39.862Z,9.27
2023-01-11T07:50:06.995Z,9.30
2023-01-11T07:52:33.451Z,9.35
2023-01-11T07:55:02.685Z,9.38
2023-01-11T07:57:30.532Z,9.28
2023-01-11T07:59:56.989Z,9.23
2023-01-11T08:02:23.590Z,9.37
2023-01-11T08:04:50.371Z,9.42
2023-01-11T08:07:16.971Z,9.35
2023-01-11T08:09:43.431Z,9.38
2023-01-11T08:12:28.453Z,9.38
2023-01-11T08:14:55.000Z,9.50
2023-01-11T08:17:21.465Z,9.49
2023-01-11T08:19:47.909Z,9.61
2023-01-11T08:22:14.339Z,9.72
2023-01-11T08:24:40.858Z,9.79
2023-01-11T08:27:07.402Z,9.74
2023-01-11T08:29:34.099Z,9.78
2023-01-11T08:32:00.721Z,9.80
2023-01-11T08:34:30.413Z,9.76
2023-01-11T08:36:57.595Z,9.78
2023-01-11T08:39:24.776Z,9.76
2023-01-11T08:41:51.299Z,9.86
2023-01-11T08:44:25.464Z,9.82
2023-01-11T08:46:59.495Z,9.86
2023-01-11T08:49:25.922Z,9.83
2023-01-11T08:51:52.407Z,9.91
2023-01-11T08:54:18.878Z,9.67
2023-01-11T08:56:45.415Z,9.53
2023-01-11T08:59:12.074Z,9.48
2023-01-11T09:01:38.690Z,9.43
2023-01-11T09:04:19.196Z,9.43
2023-01-11T09:06:50.455Z,9.44
2023-01-11T09:09:17.050Z,9.48
2023-01-11T09:11:57.023Z,9.48
2023-01-11T09:14:25.591Z,9.50
2023-01-11T09:16:53.051Z,9.52
2023-01-11T09:19:19.903Z,9.52
2023-01-11T09:21:46.806Z,9.56
2023-01-11T09:24:13.760Z,9.50
2023-01-11T09:26:41.544Z,9.50
2023-01-11T09:29:08.634Z,9.50
2023-01-11T09:31:35.285Z,9.52
2023-01-11T09:34:01.686Z,9.55
2023-01-11T09:36:28.998Z,9.56
2023-01-11T09:38:57.777Z,9.57
2023-01-11T09:42:02.040Z,9.59
2023-01-11T09:44:30.741Z,9.56
2023-01-11T09:47:13.862Z,9.58
2023-01-11T09:49:44.698Z,9.57
2023-01-11T09:52:33.193Z,9.53
2023-01-11T09:55:01.471Z,9.54
2023-01-11T09:57:39.848Z,9.57
2023-01-11T10:00:14.559Z,9.52
2023-01-11T10:03:10.938Z,9.52
2023-01-11T10:05:59.511Z,9.52
2023-01-11T10:18:22.885Z,9.48
2023-01-11T10:18:28.495Z,9.47
2023-01-11T10:20:56.100Z,9.48
2023-01-11T10:23:32.096Z,9.47
2023-01-11T10:26:04.568Z,9.46
2023-01-11T10:29:00.695Z,9.44
2023-01-11T10:31:49.267Z,9.40
2023-01-11T10:34:39.250Z,9.39
2023-01-11T10:37:30.225Z,9.39
2023-01-11T10:40:34.767Z,9.38
2023-01-11T10:43:09.207Z,9.37
2023-01-11T10:45:44.359Z,9.35
2023-01-11T10:48:20.880Z,9.39
2023-01-11T10:51:09.595Z,9.39
2023-01-11T10:53:43.398Z,9.39
2023-01-11T10:57:03.108Z,9.39
2023-01-11T11:00:04.542Z,9.43
2023-01-11T11:03:08.565Z,9.50
2023-01-11T11:05:56.615Z,9.55
2023-01-11T11:09:00.909Z,9.54
2023-01-11T11:11:38.231Z,9.55
2023-01-11T11:14:34.639Z,9.55
2023-01-11T11:17:18.419Z,9.56
2023-01-11T11:19:44.948Z,9.56
2023-01-11T11:22:12.093Z,9.63
2023-01-11T11:25:05.030Z,9.62
2023-01-11T11:27:40.205Z,9.61
2023-01-11T11:30:11.272Z,9.57
2023-01-11T11:32:42.682Z,9.50
2023-01-11T11:35:34.098Z,9.43
2023-01-11T11:38:00.629Z,9.40
2023-01-11T11:40:37.739Z,9.38
2023-01-11T11:43:22.707Z,9.40
2023-01-11T11:45:57.501Z,9.41
2023-01-11T11:48:32.540Z,9.45
2023-01-11T11:51:05.395Z,9.48
2023-01-11T11:53:56.201Z,9.52
2023-01-11T11:56:35.499Z,9.53
2023-01-11T11:59:13.576Z,9.49
2023-01-11T12:01:46.935Z,9.48
2023-01-11T12:04:15.189Z,9.46
2023-01-11T12:06:42.062Z,9.43
2023-01-11T12:09:23.093Z,9.39
2023-01-11T12:11:49.929Z,9.39
2023-01-11T12:14:18.984Z,9.43
2023-01-11T12:16:45.993Z,9.53
2023-01-11T12:19:36.660Z,9.65
2023-01-11T12:22:23.846Z,9.90
2023-01-11T12:25:19.231Z,9.95
2023-01-11T12:28:15.726Z,9.93
2023-01-11T12:30:42.229Z,9.91
2023-01-11T12:33:14.461Z,9.94
2023-01-11T12:35:58.702Z,9.96
2023-01-11T12:38:52.349Z,9.99
2023-01-11T12:41:45.003Z,10.13
2023-01-11T12:44:26.296Z,10.16
2023-01-11T12:47:39.840Z,10.13
2023-01-11T12:50:26.666Z,10.11
2023-01-11T12:52:53.079Z,10.07
2023-01-11T12:55:37.233Z,10.08
2023-01-11T12:58:15.089Z,9.99
2023-01-11T13:01:03.805Z,9.93
2023-01-11T13:03:53.292Z,9.90
2023-01-11T13:06:22.835Z,9.88
2023-01-11T13:08:49.628Z,9.83
2023-01-11T13:11:35.072Z,9.88
2023-01-11T13:14:23.401Z,9.74
2023-01-11T13:17:05.316Z,9.81
2023-01-11T13:19:57.151Z,9.86
2023-01-11T13:22:30.405Z,9.85
2023-01-11T13:24:59.610Z,9.94
2023-01-11T13:27:28.927Z,9.96
2023-01-11T13:29:56.680Z,10.10
2023-01-11T13:32:27.685Z,10.32
2023-01-11T13:35:14.517Z,10.46
2023-01-11T13:37:47.446Z,10.63
2023-01-11T13:40:31.682Z,10.75
2023-01-11T13:43:13.392Z,10.64
2023-01-11T13:45:47.452Z,10.64
2023-01-11T13:48:28.513Z,10.72
2023-01-11T13:51:02.908Z,10.61
2023-01-11T13:53:43.777Z,10.33
2023-01-11T13:56:18.595Z,10.16
2023-01-11T13:58:48.115Z,10.04
2023-01-11T14:01:19.387Z,10.27
2023-01-11T14:03:51.860Z,10.50
2023-01-11T14:06:26.577Z,10.40
2023-01-11T14:09:14.672Z,10.33
2023-01-11T14:12:00.120Z,10.34
2023-01-11T14:15:02.901Z,10.33
2023-01-11T14:17:38.507Z,10.19
2023-01-11T14:20:28.082Z,10.06
2023-01-11T14:23:19.969Z,9.94
2023-01-11T14:26:05.655Z,9.90
2023-01-11T14:28:44.606Z,9.87
2023-01-11T14:31:55.208Z,9.88
2023-01-11T14:34:24.669Z,9.96
2023-01-11T14:37:19.108Z,9.94
2023-01-11T14:40:25.767Z,9.88
2023-01-11T14:43:13.980Z,9.88
2023-01-11T14:45:59.377Z,9.83
2023-01-11T14:48:36.075Z,9.72
2023-01-11T14:51:32.492Z,9.66
2023-01-11T14:54:13.514Z,9.59
2023-01-11T14:56:42.961Z,9.58
2023-01-11T14:59:31.210Z,9.54
2023-01-11T15:02:04.056Z,9.50
2023-01-11T15:04:38.162Z,9.52
2023-01-11T15:07:23.458Z,9.46
2023-01-11T15:09:53.529Z,9.49
2023-01-11T15:12:23.356Z,9.51
2023-01-11T15:14:54.357Z,9.51
2023-01-11T15:17:44.130Z,9.51
2023-01-11T15:20:19.131Z,9.42
2023-01-11T15:22:46.578Z,9.42
2023-01-11T15:25:22.971Z,9.34
2023-01-11T15:27:50.790Z,9.26
2023-01-11T15:30:29.903Z,9.18
2023-01-11T15:33:18.375Z,9.28
2023-01-11T15:35:57.320Z,9.32
2023-01-11T15:38:30.518Z,9.25
2023-01-11T15:41:18.423Z,9.15
2023-01-11T15:43:59.585Z,9.18
2023-01-11T15:46:53.487Z,9.18
2023-01-11T15:49:49.928Z,9.28
2023-01-11T15:52:38.155Z,9.16
2023-01-11T15:55:25.566Z,9.15
2023-01-11T15:58:04.572Z,9.15
2023-01-11T16:00:34.047Z,9.18
2023-01-11T16:03:25.603Z,9.07
2023-01-11T16:06:12.301Z,9.04
2023-01-11T16:09:16.050Z,9.18
2023-01-11T16:11:45.998Z,9.18
2023-01-11T16:14:39.949Z,9.11
2023-01-11T16:17:15.265Z,9.03
2023-01-11T16:19:46.003Z,8.98
2023-01-11T16:22:20.303Z,9.01
2023-01-11T16:24:49.545Z,9.06
2023-01-11T16:27:36.857Z,9.04
2023-01-11T16:30:03.565Z,9.11
2023-01-11T16:32:34.825Z,9.13
2023-01-11T16:35:02.618Z,8.98
2023-01-11T16:37:39.555Z,8.92
2023-01-11T16:40:15.046Z,8.95
2023-01-11T16:42:53.713Z,9.06
2023-01-11T16:45:22.984Z,9.05
2023-01-11T16:48:04.537Z,9.10
2023-01-11T16:50:32.108Z,9.16
2023-01-11T16:53:07.369Z,9.17
2023-01-11T16:55:37.879Z,9.17
2023-01-11T16:58:26.110Z,9.13
2023-01-11T17:01:13.272Z,9.18
2023-01-11T17:03:51.260Z,9.14
2023-01-11T17:06:21.938Z,9.06
2023-01-11T17:08:54.283Z,8.99
2023-01-11T17:11:36.122Z,8.96
2023-01-11T17:14:11.732Z,8.86
2023-01-11T17:16:41.633Z,8.87
2023-01-11T17:19:23.321Z,8.84
2023-01-11T17:21:56.790Z,8.81
2023-01-11T17:24:25.947Z,8.78
2023-01-11T17:26:59.245Z,8.79
2023-01-11T17:29:40.859Z,8.70
2023-01-11T17:32:16.264Z,8.72
2023-01-11T17:34:43.484Z,8.72
2023-01-11T17:37:14.745Z,8.80
2023-01-11T17:39:47.812Z,8.77
2023-01-11T17:42:34.712Z,8.65
2023-01-11T17:45:14.818Z,8.66
2023-01-11T17:47:47.346Z,8.61
2023-01-11T17:50:31.963Z,8.52
2023-01-11T17:53:20.981Z,8.47
2023-01-11T17:55:58.808Z,8.59
2023-01-11T17:58:29.252Z,8.60
2023-01-11T18:01:05.153Z,8.54
2023-01-11T18:03:42.983Z,8.55
2023-01-11T18:06:11.810Z,8.56
2023-01-11T18:08:38.339Z,8.53
2023-01-11T18:11:05.155Z,8.66
2023-01-11T18:13:36.434Z,8.63
2023-01-11T18:16:04.209Z,8.52
2023-01-11T18:18:57.144Z,8.57
2023-01-11T18:21:26.542Z,8.53
2023-01-11T18:24:11.420Z,8.55
2023-01-11T18:26:40.371Z,8.48
2023-01-11T18:29:19.280Z,8.45
2023-01-11T18:31:45.872Z,8.35
2023-01-11T18:34:12.359Z,8.47
2023-01-11T18:36:38.780Z,8.42
2023-01-11T18:39:12.173Z,8.38
2023-01-11T18:41:58.312Z,8.35
2023-01-11T18:44:25.041Z,8.29
2023-01-11T18:46:51.708Z,8.27
2023-01-11T18:49:18.125Z,8.26
2023-01-11T18:51:45.242Z,8.30
2023-01-11T18:54:16.583Z,8.29
2023-01-11T18:56:43.081Z,8.28
2023-01-11T18:59:09.809Z,8.34
2023-01-11T19:01:52.651Z,8.26
2023-01-11T19:04:23.755Z,8.22
2023-01-11T19:06:52.309Z,8.20
2023-01-11T19:09:18.893Z,8.17
2023-01-11T19:11:45.402Z,8.14
2023-01-11T19:14:11.900Z,8.12
2023-01-11T19:16:38.332Z,8.10
2023-01-11T19:19:04.809Z,8.07
2023-01-11T19:21:31.311Z,8.01
2023-01-11T19:23:58.406Z,8.00
2023-01-11T19:26:24.968Z,7.98
2023-01-11T19:28:51.419Z,8.03
2023-01-11T19:31:18.049Z,8.04
2023-01-11T19:33:44.519Z,8.03
2023-01-11T19:36:11.230Z,8.02
2023-01-11T19:38:39.132Z,8.04
2023-01-11T19:41:07.925Z,8.05
2023-01-11T19:43:35.036Z,8.08
2023-01-11T19:46:04.634Z,8.30
2023-01-11T19:48:34.958Z,8.27
2023-01-11T19:51:13.089Z,8.23
2023-01-11T19:53:39.570Z,8.22
2023-01-11T19:56:08.488Z,8.19
2023-01-11T19:58:38.420Z,8.19
2023-01-11T20:01:10.810Z,8.15
2023-01-11T20:03:37.804Z,8.15
2023-01-11T20:06:08.084Z,8.18
2023-01-11T20:08:38.397Z,8.30
2023-01-11T20:11:10.682Z,8.21
2023-01-11T20:13:37.261Z,8.27
2023-01-11T20:16:13.736Z,8.18
2023-01-11T20:18:42.350Z,8.16
2023-01-11T20:21:13.612Z,8.18
2023-01-11T20:23:40.105Z,8.21
2023-01-11T20:26:07.844Z,8.16
2023-01-11T20:28:34.584Z,8.13
2023-01-11T20:31:06.194Z,8.12
2023-01-11T20:33:32.686Z,8.10
2023-01-11T20:35:59.193Z,8.12
2023-01-11T20:38:25.899Z,8.14
2023-01-11T20:40:52.423Z,8.12
2023-01-11T20:43:19.680Z,8.13
2023-01-11T20:45:55.240Z,8.11
2023-01-11T20:48:21.675Z,8.13
2023-01-11T20:50:48.164Z,8.16
2023-01-11T20:53:15.012Z,8.21
2023-01-11T20:55:41.502Z,8.20
2023-01-11T20:58:09.865Z,8.30
2023-01-11T21:00:36.284Z,8.32
2023-01-11T21:03:02.793Z,8.32
2023-01-11T21:05:29.341Z,8.33
2023-01-11T21:07:55.804Z,8.34
2023-01-11T21:10:22.369Z,8.36
2023-01-11T21:12:50.507Z,8.38
2023-01-11T21:15:16.993Z,8.39
2023-01-11T21:17:43.813Z,8.44
2023-01-11T21:20:10.920Z,8.47
2023-01-11T21:22:37.373Z,8.44
2023-01-11T21:25:04.010Z,8.41
2023-01-11T21:27:30.453Z,8.51
2023-01-11T21:29:56.956Z,8.50
2023-01-11T21:32:23.631Z,8.51
2023-01-11T21:34:50.125Z,8.53
2023-01-11T21:37:16.631Z,8.50
2023-01-11T21:39:43.045Z,8.49
2023-01-11T21:42:09.609Z,8.62
2023-01-11T21:44:36.044Z,8.67
2023-01-11T21:47:05.077Z,8.67
2023-01-11T21:49:32.275Z,8.59
2023-01-11T21:51:59.158Z,8.53
2023-01-11T21:54:25.607Z,8.61
2023-01-11T21:56:52.251Z,8.63
2023-01-11T21:59:20.233Z,8.73
2023-01-11T22:01:49.146Z,8.72
2023-01-11T22:04:18.103Z,8.71
2023-01-11T22:06:54.002Z,8.67
2023-01-11T22:09:21.440Z,8.76
2023-01-11T22:11:47.944Z,8.72
2023-01-11T22:14:14.396Z,8.83
2023-01-11T22:16:40.916Z,8.75
2023-01-11T22:19:08.467Z,8.70
2023-01-11T22:21:36.156Z,8.73
2023-01-11T22:24:03.452Z,8.69
2023-01-11T22:26:33.299Z,8.72
2023-01-11T22:29:11.965Z,8.69
2023-01-11T22:31:50.855Z,8.73
2023-01-11T22:34:18.406Z,8.74
2023-01-11T22:36:45.683Z,8.71
2023-01-11T22:39:13.524Z,8.74
2023-01-11T22:41:40.577Z,8.82
2023-01-11T22:44:09.940Z,8.76
2023-01-11T22:46:36.838Z,8.69
2023-01-11T22:49:05.942Z,8.68
2023-01-11T22:51:32.911Z,8.66
2023-01-11T22:53:59.417Z,8.64
2023-01-11T22:56:26.862Z,8.62
2023-01-11T22:58:53.992Z,8.59
2023-01-11T23:01:25.078Z,8.58
2023-01-11T23:03:52.820Z,8.68
2023-01-11T23:06:23.381Z,8.71
2023-01-11T23:08:50.168Z,8.67
2023-01-11T23:11:41.505Z,8.70
2023-01-11T23:14:11.648Z,8.71
2023-01-11T23:16:38.658Z,8.80
2023-01-11T23:19:07.214Z,8.78
2023-01-11T23:21:34.585Z,8.71
2023-01-11T23:24:02.261Z,8.69
2023-01-11T23:26:29.329Z,8.64
2023-01-11T23:28:55.963Z,8.57
2023-01-11T23:31:24.895Z,8.52
2023-01-11T23:33:54.472Z,8.53
2023-01-11T23:36:22.877Z,8.52
2023-01-11T23:38:49.594Z,8.47
2023-01-11T23:41:37.399Z,8.48
2023-01-11T23:44:11.639Z,8.47
2023-01-11T23:46:57.824Z,8.41
2023-01-11T23:49:27.422Z,8.39
2023-01-11T23:51:54.787Z,8.36
2023-01-11T23:54:21.900Z,8.37
2023-01-11T23:56:49.002Z,8.31
2023-01-11T23:59:15.422Z,8.27
